createdAt,value
2018-02-10T04:32:35.032Z,28.65
2018-02-10T04:35:08.773Z,29.63
2018-02-10T04:37:42.544Z,29.70
2018-02-10T04:40:17.238Z,29.23
2018-02-10T04:42:51.782Z,32.00
2018-02-10T04:45:26.515Z,29.00
2018-02-10T04:48:01.036Z,29.75
2018-02-10T04:50:35.458Z,29.98
2018-02-10T04:53:09.159Z,29.98
2018-02-10T04:55:43.796Z,28.73
2018-02-10T04:58:36.563Z,30.80
2018-02-10T05:01:11.460Z,28.05
2018-02-10T05:03:45.206Z,31.45
2018-02-10T05:06:19.059Z,27.95
2018-02-10T05:08:52.890Z,26.10
2018-02-10T05:11:28.000Z,24.75
2018-02-10T05:14:01.900Z,25.00
2018-02-10T05:16:36.464Z,25.20
2018-02-10T05:19:10.149Z,26.02
2018-02-10T05:21:43.920Z,26.87
2018-02-10T05:24:17.735Z,25.25
2018-02-10T05:26:51.570Z,26.55
2018-02-10T05:29:25.357Z,26.15
2018-02-10T05:31:59.297Z,25.77
2018-02-10T05:34:33.043Z,22.42
2018-02-10T05:37:06.907Z,22.55
2018-02-10T05:39:43.781Z,23.02
2018-02-10T05:42:18.204Z,23.95
2018-02-10T05:44:52.839Z,25.25
2018-02-10T05:47:27.438Z,26.70
2018-02-10T05:50:02.049Z,24.00
2018-02-10T05:52:35.930Z,23.58
2018-02-10T05:55:09.768Z,23.85
2018-02-10T05:57:43.491Z,27.37
2018-02-10T06:00:17.313Z,26.95
2018-02-10T06:02:51.289Z,27.17
2018-02-10T06:05:25.069Z,29.20
2018-02-10T06:07:59.652Z,27.13
2018-02-10T06:10:33.424Z,24.27
2018-02-10T06:13:07.283Z,24.60
2018-02-10T06:15:41.064Z,24.63
2018-02-10T06:18:15.013Z,28.98
2018-02-10T06:20:48.854Z,26.95
2018-02-10T06:23:22.756Z,24.67
2018-02-10T06:25:57.278Z,26.20
2018-02-10T06:28:31.051Z,25.05
2018-02-10T06:31:04.784Z,26.12
2018-02-10T06:33:38.487Z,24.48
2018-02-10T06:36:12.429Z,26.85
2018-02-10T06:38:46.206Z,26.65
2018-02-10T06:41:20.057Z,25.88
2018-02-10T06:43:54.163Z,25.80
2018-02-10T06:46:28.663Z,24.12
2018-02-10T06:49:02.423Z,24.80
2018-02-10T06:51:36.205Z,25.12
2018-02-10T06:54:10.216Z,22.67
2018-02-10T06:56:44.016Z,24.60
2018-02-10T06:59:19.650Z,24.25
2018-02-10T07:01:53.623Z,24.27
2018-02-10T07:04:28.290Z,23.62
2018-02-10T07:07:02.003Z,25.42
2018-02-10T07:09:36.799Z,22.73
2018-02-10T07:12:10.542Z,23.62
2018-02-10T07:14:44.476Z,25.25
2018-02-10T07:17:18.247Z,25.73
2018-02-10T07:19:51.936Z,26.35
2018-02-10T07:22:26.501Z,26.83
2018-02-10T07:25:00.456Z,27.25
2018-02-10T07:27:34.360Z,26.33
2018-02-10T07:30:08.916Z,24.50
2018-02-10T07:32:43.403Z,27.30
2018-02-10T07:35:17.181Z,25.65
2018-02-10T07:37:51.023Z,25.58
2018-02-10T07:40:24.795Z,26.15
2018-02-10T07:42:58.641Z,26.85
2018-02-10T07:45:32.523Z,26.50
2018-02-10T07:48:06.322Z,26.67
2018-02-10T07:50:40.158Z,27.90
2018-02-10T07:53:14.025Z,30.02
2018-02-10T07:55:47.908Z,25.15
2018-02-10T07:58:22.430Z,26.98
2018-02-10T08:00:56.921Z,27.08
2018-02-10T08:03:31.784Z,26.55
2018-02-10T08:06:05.637Z,27.48
2018-02-10T08:08:39.416Z,28.62
2018-02-10T08:11:13.336Z,30.95
2018-02-10T08:13:48.096Z,32.15
2018-02-10T08:16:21.996Z,30.42
2018-02-10T08:18:55.775Z,29.80
2018-02-10T08:21:29.479Z,31.48
2018-02-10T08:24:03.677Z,30.25
2018-02-10T08:26:38.425Z,29.55
2018-02-10T08:29:12.115Z,33.47
2018-02-10T08:31:46.678Z,31.50
2018-02-10T08:34:21.232Z,32.90
2018-02-10T08:36:54.948Z,31.10
2018-02-10T08:39:28.760Z,31.92
2018-02-10T08:42:02.444Z,31.23
2018-02-10T08:44:36.566Z,30.35
2018-02-10T08:47:11.200Z,33.20
2018-02-10T08:49:44.979Z,31.35
2018-02-10T09:05:07.360Z,33.33
2018-02-10T09:07:41.136Z,32.30
2018-02-10T09:10:14.919Z,32.30
2018-02-10T09:12:48.633Z,34.53
2018-02-10T09:15:23.359Z,32.97
2018-02-10T09:17:57.356Z,31.65
2018-02-10T09:20:31.275Z,33.92
2018-02-10T09:23:05.780Z,33.03
2018-02-10T09:25:39.543Z,32.25
2018-02-10T09:28:13.321Z,33.58
2018-02-10T09:30:47.938Z,33.63
2018-02-10T09:33:23.314Z,31.52
2018-02-10T09:35:57.942Z,32.60
2018-02-10T09:38:31.893Z,32.45
2018-02-10T09:41:05.756Z,34.00
2018-02-10T09:43:40.288Z,30.35
2018-02-10T09:46:14.244Z,31.45
2018-02-10T09:48:48.041Z,31.75
2018-02-10T09:51:21.781Z,30.00
2018-02-10T09:53:55.555Z,33.60
2018-02-10T09:56:30.526Z,32.22
2018-02-10T09:59:04.418Z,34.53
2018-02-10T10:01:39.243Z,31.33
2018-02-10T10:04:12.932Z,32.95
2018-02-10T10:06:46.771Z,31.58
2018-02-10T10:09:21.460Z,31.73
2018-02-10T10:11:55.176Z,31.52
2018-02-10T10:14:29.918Z,32.83
2018-02-10T10:17:04.543Z,31.23
2018-02-10T10:19:38.185Z,32.42
2018-02-10T10:22:12.092Z,31.77
2018-02-10T10:24:45.920Z,31.37
2018-02-10T10:27:20.556Z,34.05
2018-02-10T10:29:55.095Z,34.38
2018-02-10T10:32:28.823Z,33.17
2018-02-10T10:35:03.362Z,33.63
2018-02-10T10:37:37.349Z,33.30
2018-02-10T10:40:11.150Z,31.92
2018-02-10T10:42:44.955Z,32.55
2018-02-10T10:45:18.848Z,30.35
2018-02-10T10:47:52.709Z,33.50
2018-02-10T10:50:27.267Z,31.58
2018-02-10T10:53:01.017Z,30.23
2018-02-10T10:55:34.857Z,30.23
2018-02-10T10:58:08.513Z,28.40
2018-02-10T11:00:42.197Z,30.05
2018-02-10T11:03:16.054Z,29.05
2018-02-10T11:05:49.908Z,29.37
2018-02-10T11:08:24.576Z,29.58
2018-02-10T11:10:58.433Z,28.55
2018-02-10T11:13:32.286Z,28.35
2018-02-10T11:16:05.983Z,28.45
2018-02-10T11:18:39.619Z,30.52
2018-02-10T11:21:14.184Z,28.60
2018-02-10T11:23:48.697Z,31.45
2018-02-10T11:26:22.445Z,31.30
2018-02-10T11:28:56.338Z,51.97
2018-02-10T11:31:31.067Z,27.60
2018-02-10T11:34:05.657Z,27.42
2018-02-10T11:36:41.102Z,27.85
2018-02-10T11:39:14.832Z,28.98
2018-02-10T11:41:49.461Z,28.90
2018-02-10T11:44:23.287Z,29.23
2018-02-10T11:46:57.066Z,27.20
2018-02-10T11:49:31.619Z,27.90
2018-02-10T11:52:05.596Z,27.37
2018-02-10T11:54:39.343Z,25.45
2018-02-10T11:57:13.797Z,29.23
2018-02-10T11:59:48.714Z,27.50
2018-02-10T12:02:23.474Z,25.75
2018-02-10T12:04:58.165Z,22.92
2018-02-10T12:07:33.582Z,22.42
2018-02-10T12:10:07.654Z,23.35
2018-02-10T12:12:41.661Z,25.58
2018-02-10T12:15:16.220Z,22.10
2018-02-10T12:17:50.817Z,23.17
2018-02-10T12:20:25.451Z,23.20
2018-02-10T12:22:59.321Z,21.60
2018-02-10T12:25:33.888Z,20.95
2018-02-10T12:28:08.634Z,22.87
2018-02-10T12:30:42.400Z,20.45
2018-02-10T12:33:16.283Z,20.83
2018-02-10T12:35:50.168Z,21.17
2018-02-10T12:38:23.988Z,21.33
2018-02-10T12:40:57.748Z,20.40
2018-02-10T12:43:31.560Z,21.20
2018-02-10T12:46:05.339Z,21.00
2018-02-10T12:48:44.987Z,21.15
2018-02-10T12:51:18.813Z,18.85
2018-02-10T12:53:53.424Z,21.48
2018-02-10T12:56:27.189Z,21.08
2018-02-10T12:59:01.134Z,21.05
2018-02-10T13:01:35.762Z,18.85
2018-02-10T13:04:09.555Z,19.67
2018-02-10T13:06:44.096Z,18.60
2018-02-10T13:09:17.944Z,19.65
2018-02-10T13:11:51.735Z,17.62
2018-02-10T13:14:26.342Z,16.17
2018-02-10T13:17:00.848Z,17.25
2018-02-10T13:19:34.608Z,18.05
2018-02-10T13:22:08.446Z,18.48
2018-02-10T13:24:42.263Z,18.15
2018-02-10T13:27:16.044Z,17.83
2018-02-10T13:29:49.900Z,18.05
2018-02-10T13:32:23.808Z,17.52
2018-02-10T13:34:58.439Z,17.52
2018-02-10T13:37:32.142Z,17.75
2018-02-10T13:40:06.002Z,17.80
2018-02-10T13:42:40.558Z,16.37
2018-02-10T13:45:14.316Z,15.73
2018-02-10T13:47:48.128Z,17.23
2018-02-10T13:50:22.020Z,16.83
2018-02-10T13:52:56.625Z,15.88
2018-02-10T13:55:31.346Z,17.83
2018-02-10T13:58:05.356Z,14.18
2018-02-10T14:00:39.896Z,12.20
2018-02-10T14:03:13.968Z,11.73
2018-02-10T14:05:47.715Z,12.07
2018-02-10T14:08:22.280Z,14.63
2018-02-10T14:10:56.223Z,14.70
2018-02-10T14:13:29.988Z,14.95
2018-02-10T14:16:04.873Z,14.55
2018-02-10T14:18:38.740Z,14.55
2018-02-10T14:21:13.299Z,14.63
2018-02-10T14:23:46.895Z,13.88
2018-02-10T14:26:20.762Z,13.65
2018-02-10T14:28:55.311Z,17.52
2018-02-10T14:31:30.021Z,17.33
2018-02-10T14:34:03.796Z,15.95
2018-02-10T14:36:37.584Z,15.23
2018-02-10T14:39:12.172Z,16.95
2018-02-10T14:41:45.928Z,15.50
2018-02-10T14:44:19.712Z,16.35
2018-02-10T14:46:53.354Z,17.92
2018-02-10T14:49:27.144Z,20.33
2018-02-10T14:52:00.927Z,19.75
2018-02-10T14:54:34.749Z,17.45
2018-02-10T14:57:08.497Z,20.25
2018-02-10T14:59:44.183Z,18.30
2018-02-10T15:02:18.040Z,19.42
2018-02-10T15:04:52.703Z,18.90
2018-02-10T15:07:26.515Z,21.42
2018-02-10T15:10:00.393Z,19.30
2018-02-10T15:12:34.416Z,18.90
2018-02-10T15:15:08.348Z,19.12
2018-02-10T15:17:42.157Z,19.92
2018-02-10T15:20:15.997Z,18.98
2018-02-10T15:22:49.835Z,16.92
2018-02-10T15:25:23.675Z,17.40
2018-02-10T15:27:58.214Z,18.95
2018-02-10T15:30:44.073Z,19.45
2018-02-10T15:46:47.278Z,17.08
2018-02-10T15:49:21.385Z,16.15
2018-02-10T15:51:55.068Z,15.85
2018-02-10T15:54:28.811Z,17.95
2018-02-10T15:57:02.588Z,16.05
2018-02-10T15:59:37.217Z,16.40
2018-02-10T16:02:11.077Z,16.48
2018-02-10T16:04:44.972Z,17.02
2018-02-10T16:07:18.754Z,15.45
2018-02-10T16:09:52.579Z,15.95
2018-02-10T16:12:26.408Z,16.80
2018-02-10T16:15:00.276Z,15.93
2018-02-10T16:17:34.070Z,18.23
2018-02-10T16:20:08.684Z,16.30
2018-02-10T16:22:42.414Z,16.52
2018-02-10T16:25:17.351Z,16.10
2018-02-10T16:27:51.210Z,17.40
2018-02-10T16:30:25.172Z,17.17
2018-02-10T16:32:58.944Z,18.30
2018-02-10T16:35:33.484Z,16.58
2018-02-10T16:38:07.356Z,18.37
2018-02-10T16:40:41.919Z,16.95
2018-02-10T16:43:15.863Z,16.15
2018-02-10T16:45:49.752Z,18.65
2018-02-10T16:48:23.663Z,16.25
2018-02-10T16:50:58.362Z,16.65
2018-02-10T16:53:32.264Z,15.20
2018-02-10T16:56:06.010Z,17.45
2018-02-10T16:58:39.700Z,17.55
2018-02-10T17:01:14.300Z,17.52
2018-02-10T17:03:48.100Z,17.90
2018-02-10T17:06:22.721Z,15.98
2018-02-10T17:08:56.726Z,16.50
2018-02-10T17:11:30.543Z,18.40
2018-02-10T17:14:05.040Z,18.15
2018-02-10T17:16:38.848Z,18.73
2018-02-10T17:19:14.108Z,18.08
2018-02-10T17:21:47.999Z,19.50
2018-02-10T17:24:22.844Z,16.98
2018-02-10T17:26:56.629Z,16.85
2018-02-10T17:29:31.032Z,18.73
2018-02-10T17:32:05.002Z,17.75
2018-02-10T17:34:38.863Z,19.27
2018-02-10T17:37:12.593Z,19.45
2018-02-10T17:39:46.393Z,17.60
2018-02-10T17:42:20.245Z,19.50
2018-02-10T17:44:53.873Z,18.67
2018-02-10T17:47:28.752Z,18.48
2018-02-10T17:50:02.438Z,18.10
2018-02-10T17:52:36.219Z,19.80
2018-02-10T17:55:09.928Z,17.50
2018-02-10T17:57:44.449Z,17.73
2018-02-10T18:00:18.273Z,19.15
2018-02-10T18:02:52.167Z,16.42
2018-02-10T18:05:25.902Z,19.52
2018-02-10T18:07:59.724Z,19.45
2018-02-10T18:10:33.548Z,17.15
2018-02-10T18:13:07.351Z,17.48
2018-02-10T18:15:41.125Z,19.30
2018-02-10T18:18:15.312Z,30.48
2018-02-10T18:20:49.018Z,17.17
2018-02-10T18:23:22.744Z,17.98
2018-02-10T18:25:56.592Z,17.85
2018-02-10T18:28:30.337Z,17.40
2018-02-10T18:31:04.163Z,17.95
2018-02-10T18:33:38.048Z,17.08
2018-02-10T18:36:11.928Z,16.35
2018-02-10T18:38:45.781Z,16.35
2018-02-10T18:41:19.547Z,15.27
2018-02-10T18:43:53.598Z,17.45
2018-02-10T18:46:27.461Z,17.48
2018-02-10T18:49:01.629Z,19.35
2018-02-10T18:51:36.121Z,15.95
2018-02-10T18:54:09.997Z,17.15
2018-02-10T18:56:44.550Z,18.58
2018-02-10T18:59:19.202Z,18.20
2018-02-10T19:01:52.977Z,17.92
2018-02-10T19:04:27.131Z,19.75
2018-02-10T19:07:01.726Z,19.50
2018-02-10T19:09:35.496Z,18.10
2018-02-10T19:12:10.045Z,16.25
2018-02-10T19:14:43.904Z,17.87
2018-02-10T19:17:17.610Z,17.92
2018-02-10T19:19:52.256Z,17.35
2018-02-10T19:22:26.912Z,17.30
2018-02-10T19:25:01.065Z,16.83
2018-02-10T19:27:34.873Z,16.40
2018-02-10T19:30:08.669Z,16.15
2018-02-10T19:32:42.491Z,15.35
2018-02-10T19:35:17.933Z,16.00
2018-02-10T19:37:52.535Z,16.87
2018-02-10T19:40:26.240Z,18.02
2018-02-10T19:43:00.863Z,18.52
2018-02-10T19:45:34.691Z,18.80
2018-02-10T19:48:08.496Z,18.67
2018-02-10T19:50:43.106Z,16.30
2018-02-10T19:53:17.603Z,15.00
2018-02-10T19:55:51.757Z,15.88
2018-02-10T19:58:26.435Z,15.45
2018-02-10T20:01:00.383Z,15.68
2018-02-10T20:03:34.876Z,16.77
2018-02-10T20:06:08.654Z,17.10
2018-02-10T20:08:42.416Z,15.82
2018-02-10T20:11:16.740Z,17.92
2018-02-10T20:13:50.527Z,15.63
2018-02-10T20:16:24.284Z,17.17
2018-02-10T20:18:58.060Z,16.92
2018-02-10T20:21:32.665Z,20.02
2018-02-10T20:24:06.468Z,17.00
2018-02-10T20:26:40.342Z,16.65
2018-02-10T20:29:14.117Z,16.20
2018-02-10T20:31:48.328Z,19.40
2018-02-10T20:34:22.013Z,17.60
2018-02-10T20:36:56.238Z,18.20
2018-02-10T20:39:30.813Z,16.02
2018-02-10T20:42:04.939Z,13.68
2018-02-10T20:44:38.784Z,12.30
2018-02-10T20:47:12.574Z,14.43
2018-02-10T20:49:46.403Z,11.32
2018-02-10T20:52:20.175Z,13.10
2018-02-10T20:54:54.011Z,12.10
2018-02-10T20:57:27.940Z,11.18
2018-02-10T21:00:01.661Z,11.43
2018-02-10T21:02:36.517Z,11.10
2018-02-10T21:05:10.251Z,11.00
2018-02-10T21:07:45.595Z,11.20
2018-02-10T21:10:19.401Z,9.13
2018-02-10T21:12:53.184Z,8.45
2018-02-10T21:15:26.978Z,8.90
2018-02-10T21:18:01.493Z,9.30
2018-02-10T21:20:35.545Z,8.90
2018-02-10T21:23:09.567Z,9.60
2018-02-10T21:25:43.354Z,11.55
2018-02-10T21:28:17.203Z,8.55
2018-02-10T21:30:50.971Z,9.88
2018-02-10T21:33:24.796Z,8.85
2018-02-10T21:35:58.580Z,8.23
2018-02-10T21:38:32.702Z,9.73
2018-02-10T21:41:08.003Z,9.82
2018-02-10T21:43:41.831Z,9.30
2018-02-10T21:46:15.649Z,9.02
2018-02-10T21:48:49.494Z,8.95
2018-02-10T21:51:24.050Z,13.60
2018-02-10T21:53:59.005Z,9.90
2018-02-10T21:56:32.862Z,10.02
2018-02-10T21:59:06.832Z,8.02
